Time;durP1;ratioP1;P1;durP2;ratioP2;P2;SDS_P1;SDS_P2;PMS_P1;PMS_P2;Temp;Humidity;BMP_temperature;BMP_pressure;BME280_temperature;BME280_humidity;BME280_pressure;Samples;Min_cycle;Max_cycle;Signal;HPM_P1;HPM_P2
2021/01/26 00:01:04;;;;;;;29.40;17.17;;;;;;;2.95;85.74;99360.16;5052055;28;20071;-65
2021/01/26 00:03:29;;;;;;;31.20;17.40;;;;;;;2.92;86.22;99366.53;5052165;28;20546;-65
2021/01/26 00:05:55;;;;;;;28.38;16.65;;;;;;;2.91;86.32;99366.66;5052095;28;20021;-65
2021/01/26 00:08:21;;;;;;;27.40;17.25;;;;;;;2.89;86.08;99365.91;5052019;28;20146;-65
2021/01/26 00:10:47;;;;;;;30.25;18.83;;;;;;;2.89;85.68;99361.47;5050760;28;20025;-65
2021/01/26 00:13:14;;;;;;;30.25;18.10;;;;;;;2.86;86.02;99366.13;5052010;28;20025;-65
2021/01/26 00:15:40;;;;;;;30.35;16.65;;;;;;;2.87;85.95;99381.06;5051730;28;20047;-65
2021/01/26 00:18:07;;;;;;;29.10;17.30;;;;;;;2.83;86.30;99369.84;5051655;28;20503;-65
2021/01/26 00:20:33;;;;;;;32.88;17.63;;;;;;;2.82;86.76;99373.47;5051922;28;20464;-65
2021/01/26 00:22:58;;;;;;;27.58;16.75;;;;;;;2.68;86.50;99346.28;5051873;28;20112;-65
2021/01/26 00:25:29;;;;;;;33.00;19.65;;;;;;;2.84;86.15;99378.66;5050423;28;20119;-65
2021/01/26 00:27:55;;;;;;;30.05;17.85;;;;;;;2.82;86.29;99383.19;5051702;28;20029;-65
2021/01/26 00:30:29;;;;;;;30.10;17.85;;;;;;;2.69;86.01;99358.53;5051424;28;20017;-65
2021/01/26 00:32:58;;;;;;;32.10;18.40;;;;;;;2.70;85.79;99371.69;5051690;28;20086;-65
2021/01/26 00:35:26;;;;;;;30.55;16.83;;;;;;;2.75;86.23;99390.75;5051444;28;20484;-65
2021/01/26 00:37:52;;;;;;;31.45;17.38;;;;;;;2.77;86.19;99391.47;5051655;28;20078;-64
2021/01/26 00:40:18;;;;;;;30.77;17.50;;;;;;;2.75;86.38;99403.97;5051293;28;20041;-65
2021/01/26 00:42:44;;;;;;;30.23;17.88;;;;;;;2.66;85.49;99380.78;5051379;28;20036;-65
2021/01/26 00:45:12;;;;;;;32.15;17.15;;;;;;;2.70;85.70;99395.50;5051324;28;20029;-64
2021/01/26 00:47:38;;;;;;;33.05;18.20;;;;;;;2.55;85.95;99383.34;5051236;28;20476;-65
2021/01/26 00:50:06;;;;;;;32.55;17.67;;;;;;;2.67;86.00;99408.13;5051083;28;20048;-65
2021/01/26 00:52:31;;;;;;;28.77;17.50;;;;;;;2.57;86.36;99388.56;5051369;28;20048;-65
2021/01/26 00:54:56;;;;;;;31.13;17.17;;;;;;;2.56;86.38;99392.13;5051496;28;20021;-65
2021/01/26 00:57:22;;;;;;;29.73;17.58;;;;;;;2.54;86.86;99408.09;5050932;28;20025;-65
2021/01/26 00:59:48;;;;;;;28.23;16.33;;;;;;;2.52;86.39;99410.03;5050017;28;20029;-64
2021/01/26 01:02:15;;;;;;;28.55;16.92;;;;;;;2.39;86.61;99388.84;5051208;28;20380;-64
2021/01/26 01:04:42;;;;;;;31.33;16.80;;;;;;;2.49;86.99;99399.66;5050918;28;20021;-65
2021/01/26 01:07:07;;;;;;;35.95;18.38;;;;;;;2.48;86.55;99402.41;5050837;28;20037;-65
2021/01/26 01:09:33;;;;;;;27.20;16.85;;;;;;;2.35;86.82;99384.72;5050894;28;20082;-65
2021/01/26 01:11:58;;;;;;;28.58;16.63;;;;;;;2.45;87.00;99414.03;5050668;28;20040;-65
2021/01/26 01:14:24;;;;;;;29.83;17.02;;;;;;;2.45;86.60;99418.50;5050712;28;20024;-65
2021/01/26 01:16:50;;;;;;;30.67;16.40;;;;;;;2.41;86.62;99401.16;5050817;28;20393;-64
2021/01/26 01:19:15;;;;;;;31.55;17.40;;;;;;;2.34;86.40;99393.63;5050684;28;20025;-65
2021/01/26 01:21:41;;;;;;;27.77;16.67;;;;;;;2.39;86.18;99414.47;5050741;28;20041;-64
2021/01/26 01:24:06;;;;;;;28.10;16.50;;;;;;;2.24;85.97;99392.56;5050471;28;20035;-65
2021/01/26 01:26:33;;;;;;;24.58;14.98;;;;;;;2.42;86.12;99418.72;5050542;28;20438;-65
2021/01/26 01:28:58;;;;;;;29.25;16.75;;;;;;;2.32;85.99;99406.09;5050639;28;20107;-65
2021/01/26 01:31:24;;;;;;;30.67;16.77;;;;;;;2.37;86.13;99416.38;5050361;28;20100;-65
2021/01/26 01:33:49;;;;;;;28.85;17.30;;;;;;;2.35;85.88;99423.56;5051020;28;20021;-65
2021/01/26 01:36:15;;;;;;;30.77;16.35;;;;;;;2.28;86.05;99431.09;5050517;28;20045;-65
2021/01/26 01:38:40;;;;;;;28.83;16.75;;;;;;;2.25;86.25;99433.94;5050024;28;20068;-65
2021/01/26 01:41:06;;;;;;;27.85;15.55;;;;;;;2.21;86.12;99431.59;5081952;28;20399;-65
2021/01/26 01:43:31;;;;;;;31.73;17.20;;;;;;;2.12;86.34;99405.78;5050095;28;20052;-65
2021/01/26 01:45:57;;;;;;;29.95;16.50;;;;;;;2.14;86.05;99415.31;5050279;28;20491;-65
2021/01/26 01:48:32;;;;;;;26.65;16.15;;;;;;;2.13;85.65;99426.81;5050380;28;20104;-65
2021/01/26 01:51:08;;;;;;;26.90;15.32;;;;;;;2.13;85.57;99426.81;5082713;28;20021;-65
2021/01/26 01:53:44;;;;;;;27.52;15.02;;;;;;;2.10;85.44;99427.03;5050172;28;20067;-64
2021/01/26 01:56:20;;;;;;;27.50;16.02;;;;;;;2.13;85.54;99432.13;5048825;28;20017;-65
2021/01/26 01:58:51;;;;;;;25.73;15.02;;;;;;;2.00;85.03;99420.66;5050274;28;20035;-65
2021/01/26 02:01:19;;;;;;;29.60;15.77;;;;;;;2.07;84.77;99435.16;5050165;28;20055;-64
2021/01/26 02:03:54;;;;;;;28.02;15.88;;;;;;;1.98;84.89;99433.16;5049841;28;20032;-64
2021/01/26 02:06:23;;;;;;;23.33;14.10;;;;;;;1.88;84.99;99436.53;5050121;28;20061;-64
2021/01/26 02:08:58;;;;;;;24.27;14.85;;;;;;;1.90;85.38;99440.75;5050335;28;20111;-65
2021/01/26 02:11:24;;;;;;;25.05;15.43;;;;;;;1.89;85.26;99441.72;5051673;28;20135;-65
2021/01/26 02:13:51;;;;;;;27.13;15.15;;;;;;;1.94;85.35;99460.72;5054499;28;20087;-65
2021/01/26 02:16:42;;;;;;;30.00;16.60;;;;;;;1.91;85.33;99450.34;5086635;28;20423;-65
2021/01/26 02:19:13;;;;;;;27.42;15.82;;;;;;;1.87;84.61;99445.41;5054034;28;20071;-64
2021/01/26 02:22:09;;;;;;;27.30;15.70;;;;;;;1.84;84.99;99449.06;5054066;28;20498;-65
2021/01/26 02:25:11;;;;;;;26.73;15.13;;;;;;;1.79;85.15;99451.19;5054139;28;20056;-65
2021/01/26 02:28:13;;;;;;;25.67;14.80;;;;;;;1.76;84.55;99461.97;5054178;28;20017;-64
2021/01/26 02:31:13;;;;;;;32.05;15.48;;;;;;;1.77;84.47;99462.78;5053881;28;20388;-65
2021/01/26 02:34:15;;;;;;;26.98;15.43;;;;;;;1.69;84.63;99471.25;5053950;28;20028;-64
2021/01/26 02:37:09;;;;;;;28.60;15.80;;;;;;;1.53;84.94;99475.84;5054045;28;20452;-64
2021/01/26 02:39:41;;;;;;;27.95;15.90;;;;;;;1.42;86.23;99458.97;5053404;28;20475;-64
2021/01/26 02:42:15;;;;;;;27.92;15.50;;;;;;;1.33;87.72;99468.34;5053708;28;20021;-65
2021/01/26 02:45:14;;;;;;;26.55;14.65;;;;;;;1.15;88.35;99456.31;5053992;28;20480;-64
2021/01/26 02:48:20;;;;;;;28.25;15.65;;;;;;;1.24;88.85;99483.91;5052280;28;20021;-64
2021/01/26 02:50:54;;;;;;;27.58;15.60;;;;;;;1.21;89.26;99484.09;5035721;28;20045;-65
2021/01/26 02:53:20;;;;;;;30.15;16.55;;;;;;;1.24;89.57;99487.41;5053584;28;20116;-65
2021/01/26 02:56:10;;;;;;;26.42;15.40;;;;;;;1.35;88.35;99503.41;5053634;28;20135;-65
2021/01/26 02:58:50;;;;;;;26.25;15.32;;;;;;;1.25;88.75;99485.59;5085542;28;20064;-64
2021/01/26 03:01:18;;;;;;;26.08;14.40;;;;;;;1.30;89.45;99510.78;5053542;28;20383;-65
2021/01/26 03:03:50;;;;;;;28.50;15.90;;;;;;;1.13;89.45;99494.31;5053275;28;20056;-65
2021/01/26 03:06:27;;;;;;;27.98;15.32;;;;;;;1.32;89.12;99511.53;5053141;28;20116;-65
2021/01/26 03:09:10;;;;;;;28.77;15.48;;;;;;;1.24;89.35;99513.81;5052336;28;20033;-65
2021/01/26 03:11:43;;;;;;;26.80;13.88;;;;;;;1.06;89.91;99485.09;5053286;28;20049;-65
2021/01/26 03:14:25;;;;;;;31.55;16.50;;;;;;;1.16;90.54;99508.16;5053133;28;20492;-64
2021/01/26 03:17:05;;;;;;;29.73;16.25;;;;;;;1.30;89.93;99531.94;5053291;28;20020;-65
2021/01/26 03:19:34;;;;;;;28.08;15.00;;;;;;;1.32;90.13;99523.91;5052931;28;20494;-65
2021/01/26 03:22:02;;;;;;;27.98;14.93;;;;;;;1.35;89.67;99523.72;5053008;28;20061;-65
2021/01/26 03:24:34;;;;;;;27.60;15.63;;;;;;;1.35;89.12;99527.19;5052153;28;20086;-64
2021/01/26 03:27:05;;;;;;;28.85;15.00;;;;;;;1.40;89.17;99525.13;5053001;28;20399;-64
2021/01/26 03:29:34;;;;;;;27.05;14.95;;;;;;;1.44;88.81;99529.25;5052742;28;20075;-65
2021/01/26 03:32:06;;;;;;;27.90;15.52;;;;;;;1.47;88.80;99533.47;5052765;28;20029;-64
2021/01/26 03:34:33;;;;;;;25.63;14.82;;;;;;;1.44;88.72;99534.53;5052555;28;20028;-65
2021/01/26 03:37:00;;;;;;;27.50;14.75;;;;;;;1.49;88.52;99540.34;5052745;28;20037;-65
2021/01/26 03:39:26;;;;;;;26.15;14.93;;;;;;;1.47;87.70;99538.75;5052595;28;20123;-65
2021/01/26 03:41:52;;;;;;;30.20;14.88;;;;;;;1.37;88.41;99527.09;5085038;28;20025;-65
2021/01/26 03:44:17;;;;;;;28.67;15.70;;;;;;;1.48;88.84;99549.25;5052468;28;20036;-65
2021/01/26 03:46:50;;;;;;;26.05;14.65;;;;;;;1.54;87.53;99554.13;5052461;28;20086;-65
2021/01/26 03:49:34;;;;;;;26.05;14.63;;;;;;;1.55;87.49;99550.53;5084570;28;20024;-65
2021/01/26 03:52:21;;;;;;;23.60;14.20;;;;;;;1.55;87.59;99547.06;5084759;28;20079;-64
2021/01/26 03:55:04;;;;;;;26.83;14.43;;;;;;;1.58;87.76;99560.09;5052307;28;20104;-65
2021/01/26 03:57:54;;;;;;;25.40;14.02;;;;;;;1.47;87.53;99534.34;5052190;28;20029;-65
2021/01/26 04:00:47;;;;;;;25.95;15.13;;;;;;;1.64;87.42;99567.59;5084576;28;20391;-64
2021/01/26 04:03:44;;;;;;;25.45;14.05;;;;;;;1.61;86.82;99559.91;5052416;28;20029;-65
2021/01/26 04:06:23;;;;;;;23.10;12.93;;;;;;;1.71;86.17;99575.03;5052113;28;20453;-64
2021/01/26 04:08:53;;;;;;;24.45;14.35;;;;;;;1.51;86.68;99532.34;5052283;28;20387;-64
2021/01/26 04:11:47;;;;;;;26.65;14.73;;;;;;;1.54;86.35;99535.66;5051921;28;20027;-64
2021/01/26 04:14:31;;;;;;;22.23;13.52;;;;;;;1.53;85.29;99538.38;5051704;28;20029;-65
2021/01/26 04:17:13;;;;;;;24.45;13.57;;;;;;;1.84;84.86;99586.53;5050351;28;20040;-64
2021/01/26 04:19:45;;;;;;;25.67;13.50;;;;;;;1.82;84.48;99585.81;5049159;28;20116;-65
2021/01/26 04:22:13;;;;;;;26.33;14.23;;;;;;;1.81;84.96;99592.00;5047992;28;20078;-65
2021/01/26 04:24:38;;;;;;;27.50;13.95;;;;;;;1.85;85.18;99596.19;5051159;28;20012;-64
2021/01/26 04:27:15;;;;;;;24.05;13.93;;;;;;;1.82;85.17;99592.88;5051126;28;20051;-64
2021/01/26 04:29:40;;;;;;;22.25;12.98;;;;;;;1.82;85.06;99601.66;5050041;28;20538;-65
2021/01/26 04:32:06;;;;;;;26.30;14.75;;;;;;;1.80;84.38;99600.03;5050429;28;20029;-64
2021/01/26 04:34:32;;;;;;;25.17;13.60;;;;;;;1.78;84.93;99605.41;5048660;28;20483;-64
2021/01/26 04:36:58;;;;;;;26.10;14.48;;;;;;;1.74;85.41;99606.56;5051218;28;20120;-65
2021/01/26 04:39:23;;;;;;;24.25;13.70;;;;;;;1.64;85.67;99586.09;5050940;28;20454;-64
2021/01/26 04:41:52;;;;;;;25.67;13.63;;;;;;;1.81;85.03;99617.63;5051038;28;20055;-64
2021/01/26 04:44:43;;;;;;;25.40;14.38;;;;;;;1.80;85.14;99623.81;5051352;28;20537;-65
2021/01/26 04:47:09;;;;;;;25.73;14.55;;;;;;;1.83;84.39;99624.50;5050613;28;20590;-64
2021/01/26 04:50:08;;;;;;;23.92;14.27;;;;;;;1.85;84.45;99625.25;5068482;28;20036;-64
2021/01/26 04:52:42;;;;;;;25.77;13.65;;;;;;;1.84;84.25;99628.00;5049465;28;20387;-65
2021/01/26 04:55:28;;;;;;;26.75;15.35;;;;;;;1.83;83.75;99635.06;5051052;28;20108;-65
2021/01/26 04:58:17;;;;;;;24.02;13.75;;;;;;;1.82;84.58;99641.31;5051580;28;20025;-64
2021/01/26 05:00:46;;;;;;;25.92;14.35;;;;;;;1.80;84.86;99639.69;5051008;28;20052;-65
2021/01/26 05:03:40;;;;;;;23.55;13.63;;;;;;;1.69;84.41;99621.03;5050802;28;20067;-65
2021/01/26 05:06:10;;;;;;;23.40;12.48;;;;;;;1.79;84.15;99644.16;5051068;28;20372;-65
2021/01/26 05:08:39;;;;;;;22.50;13.02;;;;;;;1.79;84.42;99645.94;5050954;28;20064;-64
2021/01/26 05:11:12;;;;;;;22.35;13.43;;;;;;;1.86;84.74;99650.75;5050825;28;20036;-64
2021/01/26 05:13:56;;;;;;;25.25;14.25;;;;;;;1.69;84.79;99629.81;5043027;28;20044;-64
2021/01/26 05:16:35;;;;;;;25.88;13.90;;;;;;;1.82;84.47;99651.88;5049477;28;20048;-65
2021/01/26 05:19:11;;;;;;;22.98;13.52;;;;;;;1.80;84.68;99651.13;5049514;28;20646;-64
2021/01/26 05:22:03;;;;;;;23.80;12.80;;;;;;;1.68;84.88;99648.41;5049951;28;20055;-65
2021/01/26 05:24:34;;;;;;;20.15;12.27;;;;;;;1.74;84.84;99661.25;5048444;28;20029;-65
2021/01/26 05:27:01;;;;;;;19.42;12.20;;;;;;;1.79;84.26;99677.66;5048363;28;20186;-64
2021/01/26 05:29:29;;;;;;;23.10;13.27;;;;;;;1.77;84.57;99668.94;5050020;28;20367;-64
2021/01/26 05:32:03;;;;;;;28.50;14.90;;;;;;;1.62;84.78;99652.25;5048235;28;20487;-64
2021/01/26 05:34:30;;;;;;;30.60;15.55;;;;;;;1.65;85.34;99667.09;5048134;28;20033;-64
2021/01/26 05:36:56;;;;;;;27.92;14.68;;;;;;;1.55;85.29;99652.75;5045051;28;20127;-65
2021/01/26 05:39:32;;;;;;;27.88;14.15;;;;;;;1.66;85.44;99693.44;5045399;28;20539;-64
2021/01/26 05:41:58;;;;;;;29.85;14.65;;;;;;;1.56;85.54;99679.09;5049508;28;20029;-64
2021/01/26 05:44:24;;;;;;;30.13;14.10;;;;;;;1.66;85.99;99704.00;5049336;28;20491;-64
2021/01/26 05:46:50;;;;;;;25.27;13.13;;;;;;;1.59;86.34;99691.25;5050075;28;20028;-64
2021/01/26 05:49:38;;;;;;;28.15;14.48;;;;;;;1.60;86.42;99685.00;5048825;28;20558;-64
2021/01/26 05:52:07;;;;;;;25.23;13.00;;;;;;;1.53;86.45;99694.25;5050357;28;20025;-64
2021/01/26 05:54:35;;;;;;;27.95;13.73;;;;;;;1.61;86.94;99706.06;5050126;28;20043;-64
2021/01/26 05:57:01;;;;;;;28.52;14.75;;;;;;;1.65;85.93;99709.38;5050232;28;20067;-64
2021/01/26 05:59:29;;;;;;;25.25;14.10;;;;;;;1.62;85.89;99720.97;5050026;28;20056;-64
2021/01/26 06:02:08;;;;;;;23.02;12.25;;;;;;;1.66;86.10;99721.63;5043052;28;20032;-64
2021/01/26 06:04:34;;;;;;;24.23;13.43;;;;;;;1.65;86.02;99719.94;5050062;28;20029;-64
2021/01/26 06:07:01;;;;;;;23.95;14.07;;;;;;;1.67;85.92;99725.97;5050231;28;20031;-64
2021/01/26 06:09:39;;;;;;;24.67;13.70;;;;;;;1.71;85.83;99735.44;5048841;28;20037;-65
2021/01/26 06:12:14;;;;;;;24.40;12.98;;;;;;;1.73;85.56;99730.88;5049984;28;20029;-64
2021/01/26 06:14:42;;;;;;;21.95;13.00;;;;;;;1.76;84.77;99736.84;5050256;28;20036;-64
2021/01/26 06:17:10;;;;;;;22.05;12.00;;;;;;;1.80;84.36;99727.78;5050102;28;20586;-65
2021/01/26 06:19:37;;;;;;;23.40;12.63;;;;;;;1.78;83.86;99729.66;5049983;28;20104;-64
2021/01/26 06:22:03;;;;;;;23.52;12.27;;;;;;;1.86;83.67;99737.13;5049627;28;20029;-65
2021/01/26 06:24:32;;;;;;;22.00;12.38;;;;;;;1.89;83.28;99743.06;5049389;28;20021;-64
2021/01/26 06:27:03;;;;;;;20.80;11.68;;;;;;;2.04;81.18;99750.03;5049602;28;20415;-64
2021/01/26 06:29:36;;;;;;;20.73;11.32;;;;;;;1.97;81.39;99747.91;5048561;28;20027;-65
2021/01/26 06:32:33;;;;;;;22.88;12.40;;;;;;;1.73;81.29;99710.59;5050057;28;20056;-64
2021/01/26 06:35:27;;;;;;;23.85;12.18;;;;;;;1.98;80.83;99750.44;5049462;28;20037;-64
2021/01/26 06:38:24;;;;;;;21.33;11.70;;;;;;;2.04;80.19;99757.97;5046713;28;20113;-65
2021/01/26 06:41:01;;;;;;;20.50;11.80;;;;;;;2.03;80.86;99752.78;5049853;28;20041;-65
2021/01/26 06:43:53;;;;;;;21.35;11.57;;;;;;;2.02;81.31;99770.47;5048290;28;20064;-65
2021/01/26 06:46:48;;;;;;;24.13;12.18;;;;;;;2.02;81.80;99775.75;5049626;28;20033;-64
2021/01/26 06:49:45;;;;;;;19.65;11.18;;;;;;;2.00;81.32;99769.69;5049978;28;20021;-64
2021/01/26 06:52:30;;;;;;;22.15;12.07;;;;;;;2.00;81.35;99774.16;5049918;28;20104;-65
2021/01/26 06:55:37;;;;;;;21.42;11.55;;;;;;;1.99;81.34;99775.06;5050090;28;20032;-64
2021/01/26 06:58:28;;;;;;;21.30;11.80;;;;;;;2.01;81.75;99789.91;5047030;28;20040;-64
2021/01/26 07:00:59;;;;;;;24.52;13.43;;;;;;;1.99;81.55;99786.50;5053323;28;20041;-64
2021/01/26 07:03:54;;;;;;;23.45;12.80;;;;;;;2.02;81.30;99785.47;5053191;28;20029;-64
2021/01/26 07:06:28;;;;;;;;;;;;;;;2.08;80.81;99796.53;5053370;28;20021;-65
2021/01/26 07:09:25;;;;;;;23.98;13.30;;;;;;;2.11;80.40;99798.13;5053306;28;20420;-65
2021/01/26 07:12:25;;;;;;;25.42;12.38;;;;;;;1.98;79.92;99765.44;5053027;28;20040;-64
2021/01/26 07:14:56;;;;;;;22.80;13.55;;;;;;;2.16;80.08;99804.00;5051555;28;20033;-65
2021/01/26 07:17:41;;;;;;;23.08;13.93;;;;;;;2.19;80.05;99795.84;5053050;28;20020;-65
2021/01/26 07:20:15;;;;;;;25.10;12.88;;;;;;;2.21;79.87;99800.13;5052846;28;20025;-64
2021/01/26 07:22:59;;;;;;;26.40;14.80;;;;;;;2.26;79.08;99805.13;5053073;28;20043;-65
2021/01/26 07:25:37;;;;;;;27.63;15.82;;;;;;;2.26;78.45;99799.84;5053058;28;20029;-64
2021/01/26 07:28:03;;;;;;;28.58;15.48;;;;;;;2.30;78.27;99806.63;5052679;28;20025;-65
2021/01/26 07:30:42;;;;;;;25.67;14.48;;;;;;;2.20;78.74;99786.97;5052700;28;20490;-64
2021/01/26 07:34:00;;;;;;;29.02;14.38;;;;;;;2.38;77.79;99808.78;5052761;28;20493;-64
2021/01/26 07:36:32;;;;;;;27.15;13.48;;;;;;;2.34;76.99;99793.13;5029791;28;20063;-64
2021/01/26 07:39:35;;;;;;;27.23;14.55;;;;;;;2.47;76.80;99818.78;5032601;28;20045;-64
2021/01/26 07:42:17;;;;;;;26.92;14.57;;;;;;;2.49;76.06;99825.69;5032608;28;20467;-65
2021/01/26 07:44:59;;;;;;;22.80;13.05;;;;;;;2.44;76.20;99811.88;5032682;28;20022;-64
2021/01/26 07:47:42;;;;;;;23.88;13.30;;;;;;;2.60;76.80;99835.59;5032660;28;20029;-64
2021/01/26 07:50:36;;;;;;;20.40;12.98;;;;;;;2.64;76.33;99837.13;5032646;28;20052;-64
2021/01/26 07:53:17;;;;;;;25.05;13.65;;;;;;;2.60;76.16;99835.59;5032468;28;20025;-64
2021/01/26 07:55:59;;;;;;;23.30;12.73;;;;;;;2.64;76.29;99837.94;5032383;28;20071;-64
2021/01/26 07:58:25;;;;;;;22.27;13.15;;;;;;;2.63;76.04;99838.91;5032244;28;20476;-64
2021/01/26 08:00:58;;;;;;;23.48;13.52;;;;;;;2.81;75.34;99850.13;5031039;28;20115;-65
2021/01/26 08:03:27;;;;;;;22.75;12.70;;;;;;;2.84;75.05;99844.63;5032086;28;20029;-64
2021/01/26 08:06:00;;;;;;;21.35;13.32;;;;;;;2.98;74.29;99848.09;5064114;28;20481;-64
2021/01/26 08:08:27;;;;;;;24.80;13.00;;;;;;;3.07;74.20;99863.41;5032082;28;20484;-64
2021/01/26 08:11:20;;;;;;;22.50;13.75;;;;;;;3.15;74.02;99861.09;5031804;28;20064;-64
2021/01/26 08:13:52;;;;;;;23.00;13.40;;;;;;;3.09;72.42;99834.16;5063980;28;20041;-64
2021/01/26 08:16:28;;;;;;;22.48;13.13;;;;;;;3.12;73.06;99834.81;5031954;28;20099;-64
2021/01/26 08:18:55;;;;;;;24.35;13.93;;;;;;;3.28;72.77;99850.53;5031972;28;20025;-64
2021/01/26 08:21:45;;;;;;;25.73;14.43;;;;;;;3.49;71.13;99849.13;5031602;28;20029;-64
2021/01/26 08:24:23;;;;;;;22.65;13.35;;;;;;;3.55;70.96;99860.16;5033710;28;20125;-64
2021/01/26 08:26:50;;;;;;;25.15;13.85;;;;;;;3.59;70.31;99858.19;5031710;28;20480;-64
2021/01/26 08:29:37;;;;;;;25.02;13.40;;;;;;;3.61;70.99;99859.75;5031617;28;20025;-64
2021/01/26 08:32:24;;;;;;;23.48;13.68;;;;;;;3.68;71.28;99865.53;5031771;28;20021;-64
2021/01/26 08:35:10;;;;;;;26.95;15.00;;;;;;;3.72;70.91;99874.97;5063698;28;20469;-65
2021/01/26 08:37:42;;;;;;;23.98;13.18;;;;;;;3.75;70.61;99878.28;5031623;28;20101;-64
2021/01/26 08:40:08;;;;;;;22.02;13.70;;;;;;;3.75;69.71;99874.75;5031230;28;20049;-64
2021/01/26 08:42:43;;;;;;;26.33;13.52;;;;;;;3.76;69.95;99879.09;5031309;28;20424;-65
2021/01/26 08:45:09;;;;;;;26.95;15.23;;;;;;;3.73;69.87;99888.13;5031371;28;20029;-65
2021/01/26 08:47:42;;;;;;;24.80;14.30;;;;;;;3.67;70.26;99895.63;5031430;28;20025;-65
2021/01/26 08:50:15;;;;;;;26.60;14.88;;;;;;;3.65;70.60;99890.41;5031337;28;20049;-64
2021/01/26 08:52:40;;;;;;;25.92;15.02;;;;;;;3.52;70.71;99872.78;5062822;28;20030;-64
2021/01/26 08:55:06;;;;;;;26.58;14.88;;;;;;;3.60;69.89;99891.69;5031316;28;20095;-64
2021/01/26 08:57:32;;;;;;;27.42;14.65;;;;;;;3.66;68.60;99902.75;5031010;28;20029;-64
2021/01/26 09:00:18;;;;;;;30.65;16.15;;;;;;;3.61;69.12;99896.06;5031493;28;20044;-64
2021/01/26 09:02:48;;;;;;;27.50;14.88;;;;;;;3.61;69.22;99906.66;5031030;28;20427;-64
2021/01/26 09:05:39;;;;;;;31.00;16.23;;;;;;;3.65;68.45;99914.28;5031044;28;20108;-64
2021/01/26 09:08:06;;;;;;;26.55;15.15;;;;;;;3.59;67.98;99897.94;5030976;28;20029;-64
2021/01/26 09:10:52;;;;;;;22.90;13.73;;;;;;;3.67;68.25;99928.28;5030990;28;20034;-64
2021/01/26 09:13:31;;;;;;;25.70;14.07;;;;;;;3.68;68.23;99926.50;5062551;28;20041;-65
2021/01/26 09:16:02;;;;;;;24.85;14.93;;;;;;;3.72;68.22;99942.13;5031153;28;20037;-64
2021/01/26 09:18:30;;;;;;;25.70;14.25;;;;;;;3.66;67.43;99931.03;5029676;28;20036;-64
2021/01/26 09:21:06;;;;;;;25.92;13.65;;;;;;;3.65;67.28;99922.22;5030070;28;20033;-65
2021/01/26 09:23:31;;;;;;;20.65;12.43;;;;;;;3.79;67.42;99932.78;5062683;28;20032;-64
2021/01/26 09:25:57;;;;;;;21.52;13.85;;;;;;;3.82;67.12;99939.69;5030701;28;20472;-64
2021/01/26 09:28:23;;;;;;;24.98;13.48;;;;;;;3.76;66.02;99918.88;5030489;28;20064;-64
2021/01/26 09:31:00;;;;;;;22.75;12.75;;;;;;;3.84;66.77;99937.81;5029364;28;20039;-64
2021/01/26 09:33:29;;;;;;;23.42;13.73;;;;;;;3.84;66.74;99941.28;5030555;28;20029;-64
2021/01/26 09:36:01;;;;;;;20.60;12.75;;;;;;;3.90;66.54;99943.53;5030662;28;20484;-64
2021/01/26 09:38:32;;;;;;;22.92;13.15;;;;;;;4.00;65.89;99935.81;5062368;28;20045;-64
2021/01/26 09:41:00;;;;;;;24.15;13.05;;;;;;;3.98;65.54;99935.94;5030784;28;20045;-65
2021/01/26 09:43:30;;;;;;;24.02;13.98;;;;;;;4.04;65.49;99945.28;5030249;28;20053;-64
2021/01/26 09:46:00;;;;;;;25.70;14.75;;;;;;;4.02;65.69;99944.50;5030577;28;20021;-65
2021/01/26 09:48:49;;;;;;;20.73;12.50;;;;;;;4.01;66.01;99929.56;5030276;28;20095;-65
2021/01/26 09:51:29;;;;;;;23.48;13.65;;;;;;;4.10;65.41;99936.91;5062471;28;20052;-65
2021/01/26 09:54:18;;;;;;;21.85;12.82;;;;;;;4.11;65.11;99934.16;5030467;28;20021;-65
2021/01/26 09:56:45;;;;;;;24.63;14.05;;;;;;;4.01;65.48;99932.22;5030291;28;20021;-65
2021/01/26 09:59:14;;;;;;;21.88;13.00;;;;;;;4.12;66.21;99945.59;5030464;28;20019;-64
2021/01/26 10:01:45;;;;;;;23.48;13.32;;;;;;;4.17;65.53;99948.78;5030335;28;20025;-64
2021/01/26 10:04:12;;;;;;;20.23;12.70;;;;;;;4.13;64.99;99937.53;5062411;28;20025;-64
2021/01/26 10:06:39;;;;;;;24.10;14.68;;;;;;;4.20;65.69;99952.06;5030050;28;20026;-65
2021/01/26 10:09:33;;;;;;;25.10;13.82;;;;;;;4.25;65.50;99949.13;5062449;28;20026;-65
2021/01/26 10:12:22;;;;;;;22.65;13.77;;;;;;;4.26;65.33;99940.22;5030629;28;20200;-64
2021/01/26 10:15:26;;;;;;;23.17;12.23;;;;;;;4.30;65.61;99944.34;5062091;28;20116;-64
2021/01/26 10:18:02;;;;;;;18.38;10.85;;;;;;;4.39;63.95;99938.44;5030052;28;20021;-65
2021/01/26 10:20:36;;;;;;;18.80;10.90;;;;;;;4.49;62.88;99945.63;5062130;28;20036;-64
2021/01/26 10:23:14;;;;;;;17.23;10.63;;;;;;;4.55;62.63;99950.53;5030379;28;20022;-65
2021/01/26 10:25:43;;;;;;;16.92;9.55;;;;;;;4.58;62.96;99954.78;5062083;28;20056;-64
2021/01/26 10:28:19;;;;;;;16.38;9.65;;;;;;;4.66;61.48;99947.13;5030411;28;20353;-64
2021/01/26 10:30:46;;;;;;;19.88;10.48;;;;;;;4.71;61.45;99942.38;5030128;28;20507;-64
2021/01/26 10:33:43;;;;;;;21.30;10.25;;;;;;;4.75;60.80;99947.31;5032764;28;20049;-65
2021/01/26 10:36:32;;;;;;;15.90;9.40;;;;;;;4.84;60.01;99950.31;5033791;28;20044;-64
2021/01/26 10:39:20;;;;;;;17.55;9.98;;;;;;;4.90;60.04;99955.19;5033401;28;20558;-63
2021/01/26 10:41:46;;;;;;;18.60;9.73;;;;;;;4.87;60.19;99952.75;5033791;28;20533;-65
2021/01/26 10:44:15;;;;;;;15.10;8.43;;;;;;;5.02;59.23;99959.63;5033767;28;20033;-65
2021/01/26 10:46:44;;;;;;;15.68;8.80;;;;;;;5.01;58.52;99958.78;5048930;28;20072;-65
2021/01/26 10:49:34;;;;;;;11.80;7.82;;;;;;;5.14;58.22;99962.28;5033576;28;20032;-65
2021/01/26 10:52:04;;;;;;;11.05;7.50;;;;;;;5.12;57.84;99944.75;5033650;28;20465;-65
2021/01/26 10:54:30;;;;;;;9.65;6.88;;;;;;;5.18;57.75;99966.41;5032170;28;20029;-65
2021/01/26 10:56:55;;;;;;;11.13;7.32;;;;;;;5.15;57.73;99966.63;5033452;28;20041;-63
2021/01/26 10:59:21;;;;;;;11.95;7.00;;;;;;;5.20;57.93;99967.16;5033316;28;20071;-63
2021/01/26 11:01:47;;;;;;;12.60;7.63;;;;;;;5.10;57.04;99952.84;5033269;28;20527;-65
2021/01/26 11:04:14;;;;;;;12.27;7.57;;;;;;;5.24;57.48;99965.13;5033334;28;20079;-65
2021/01/26 11:06:41;;;;;;;13.30;7.88;;;;;;;5.21;57.28;99955.56;5033147;28;20057;-65
2021/01/26 11:09:08;;;;;;;11.13;7.07;;;;;;;5.32;57.18;99979.56;5033336;28;20031;-65
2021/01/26 11:11:34;;;;;;;10.90;7.38;;;;;;;5.36;56.91;99977.53;5033262;28;20112;-62
2021/01/26 11:14:02;;;;;;;15.35;8.15;;;;;;;5.43;57.21;99979.66;5033086;28;20512;-63
2021/01/26 11:16:28;;;;;;;13.63;8.10;;;;;;;5.42;56.92;99977.09;5031771;28;20048;-63
2021/01/26 11:18:54;;;;;;;10.88;7.25;;;;;;;5.41;56.79;99968.25;5031650;28;20021;-65
2021/01/26 11:21:21;;;;;;;12.27;6.90;;;;;;;5.44;57.07;99975.16;5033036;28;20087;-65
2021/01/26 11:23:47;;;;;;;11.75;7.40;;;;;;;5.33;56.33;99944.06;5033147;28;20060;-65
2021/01/26 11:26:15;;;;;;;11.32;7.15;;;;;;;5.52;55.96;99973.66;5032903;28;20057;-65
2021/01/26 11:28:42;;;;;;;12.77;7.90;;;;;;;5.50;55.57;99962.28;5032935;28;20132;-63
2021/01/26 11:31:08;;;;;;;12.75;8.48;;;;;;;5.64;55.09;99975.41;5032789;28;20032;-63
2021/01/26 11:33:35;;;;;;;12.80;7.95;;;;;;;5.65;54.94;99971.81;5032978;28;20108;-63
2021/01/26 11:36:03;;;;;;;15.05;8.23;;;;;;;5.65;54.92;99966.50;5031379;28;20128;-63
2021/01/26 11:38:29;;;;;;;11.98;7.88;;;;;;;5.70;54.07;99974.13;5031420;28;20045;-65
2021/01/26 11:40:56;;;;;;;14.27;8.43;;;;;;;5.64;54.36;99962.13;5032693;28;20386;-65
2021/01/26 11:43:21;;;;;;;13.40;7.57;;;;;;;5.70;54.61;99974.13;5031785;28;20017;-65
2021/01/26 11:45:48;;;;;;;11.93;7.97;;;;;;;5.67;54.61;99961.06;5032499;28;20036;-66
2021/01/26 11:48:14;;;;;;;12.80;7.55;;;;;;;5.71;53.87;99959.88;5031312;28;20359;-65
2021/01/26 11:50:40;;;;;;;12.95;8.40;;;;;;;5.54;53.82;99942.47;5032351;28;20052;-65
2021/01/26 11:53:12;;;;;;;10.07;6.88;;;;;;;5.63;53.59;99963.09;5032874;28;20029;-65
2021/01/26 11:55:38;;;;;;;13.93;7.88;;;;;;;5.62;54.27;99966.72;5031058;28;20033;-65
2021/01/26 11:58:04;;;;;;;14.38;7.97;;;;;;;5.61;54.19;99962.34;5032345;28;20030;-65
2021/01/26 12:00:33;;;;;;;13.57;7.97;;;;;;;5.63;54.79;99968.41;5032160;28;20580;-63